createdAt,value
2017-04-09T00:00:06.471Z,1021.29
2017-04-09T00:01:16.395Z,1021.33
2017-04-09T00:02:26.635Z,1021.35
2017-04-09T00:03:36.875Z,1021.32
2017-04-09T00:04:46.853Z,1021.34
2017-04-09T00:05:57.094Z,1021.33
2017-04-09T00:07:07.330Z,1021.37
2017-04-09T00:08:17.268Z,1021.33
2017-04-09T00:09:27.513Z,1021.33
2017-04-09T00:10:37.755Z,1021.33
2017-04-09T00:11:47.990Z,1021.31
2017-04-09T00:12:57.918Z,1021.3
2017-04-09T00:14:08.163Z,1021.31
2017-04-09T00:15:18.101Z,1021.33
2017-04-09T00:16:28.365Z,1021.35
2017-04-09T00:17:38.603Z,1021.34
2017-04-09T00:18:48.532Z,1021.34
2017-04-09T00:19:58.463Z,1021.34
2017-04-09T00:21:08.392Z,1021.38
2017-04-09T00:22:18.632Z,1021.37
2017-04-09T00:23:28.246Z,1021.36
2017-04-09T00:24:38.167Z,1021.39
2017-04-09T00:25:48.405Z,1021.41
2017-04-09T00:26:58.641Z,1021.41
2017-04-09T00:28:08.571Z,1021.41
2017-04-09T00:29:18.808Z,1021.41
2017-04-09T00:30:28.734Z,1021.42
2017-04-09T00:31:38.983Z,1021.41
2017-04-09T00:32:49.248Z,1021.39
2017-04-09T00:33:59.175Z,1021.39
2017-04-09T00:35:09.424Z,1021.41
2017-04-09T00:36:19.354Z,1021.4
2017-04-09T00:37:29.282Z,1021.4
2017-04-09T00:38:39.531Z,1021.41
2017-04-09T00:39:49.463Z,1021.41
2017-04-09T00:40:59.704Z,1021.41
2017-04-09T00:42:09.943Z,1021.42
2017-04-09T00:43:20.183Z,1021.42
2017-04-09T00:44:30.420Z,1021.42
2017-04-09T00:45:40.659Z,1021.43
2017-04-09T00:46:50.586Z,1021.43
2017-04-09T00:48:00.829Z,1021.45
2017-04-09T00:49:10.753Z,1021.44
2017-04-09T00:50:20.988Z,1021.43
2017-04-09T00:51:30.916Z,1021.44
2017-04-09T00:52:40.842Z,1021.42
2017-04-09T00:53:50.469Z,1021.48
2017-04-09T00:55:00.416Z,1021.46
2017-04-09T00:56:10.344Z,1021.48
2017-04-09T00:57:20.584Z,1021.45
2017-04-09T00:58:30.821Z,1021.44
2017-04-09T00:59:40.439Z,1021.46
2017-04-09T01:00:50.682Z,1021.47
2017-04-09T01:02:00.922Z,1021.48
2017-04-09T01:03:10.850Z,1021.47
2017-04-09T01:04:20.792Z,1021.5
2017-04-09T01:05:31.036Z,1021.47
2017-04-09T01:06:40.967Z,1021.46
2017-04-09T01:07:51.211Z,1021.51
2017-04-09T01:09:01.461Z,1021.48
2017-04-09T01:10:11.710Z,1021.45
2017-04-09T01:11:21.638Z,1021.44
2017-04-09T01:12:31.563Z,1021.45
2017-04-09T01:13:41.864Z,1021.44
2017-04-09T01:14:51.801Z,1021.42
2017-04-09T01:16:01.731Z,1021.42
2017-04-09T01:17:11.352Z,1021.42
2017-04-09T01:18:21.627Z,1021.46
2017-04-09T01:19:31.870Z,1021.48
2017-04-09T01:20:41.800Z,1021.45
2017-04-09T01:21:51.724Z,1021.46
2017-04-09T01:23:01.961Z,1021.47
2017-04-09T01:24:12.206Z,1021.45
2017-04-09T01:25:22.459Z,1021.48
2017-04-09T01:26:32.704Z,1021.47
2017-04-09T01:27:42.941Z,1021.45
2017-04-09T01:28:52.869Z,1021.46
2017-04-09T01:30:03.106Z,1021.45
2017-04-09T01:31:12.726Z,1021.41
2017-04-09T01:32:22.996Z,1021.42
2017-04-09T01:33:32.923Z,1021.44
2017-04-09T01:34:43.170Z,1021.44
2017-04-09T01:35:53.406Z,1021.43
2017-04-09T01:37:03.673Z,1021.41
2017-04-09T01:38:13.919Z,1021.4
2017-04-09T01:39:23.846Z,1021.39
2017-04-09T01:40:33.770Z,1021.37
2017-04-09T01:41:44.009Z,1021.4
2017-04-09T01:42:54.247Z,1021.41
2017-04-09T01:44:04.187Z,1021.4
2017-04-09T01:45:13.823Z,1021.39
2017-04-09T01:46:23.749Z,1021.38
2017-04-09T01:47:33.680Z,1021.36
2017-04-09T01:48:43.923Z,1021.37
2017-04-09T01:49:54.166Z,1021.36
2017-04-09T01:51:04.404Z,1021.38
2017-04-09T01:52:14.644Z,1021.35
2017-04-09T01:53:24.607Z,1021.37
2017-04-09T01:54:34.534Z,1021.37
2017-04-09T01:55:44.465Z,1021.39
2017-04-09T01:56:54.701Z,1021.33
2017-04-09T01:58:04.937Z,1021.36
2017-04-09T01:59:15.176Z,1021.35
2017-04-09T02:00:25.108Z,1021.39
2017-04-09T02:01:35.346Z,1021.38
2017-04-09T02:02:45.583Z,1021.36
2017-04-09T02:03:55.521Z,1021.4
2017-04-09T02:05:05.767Z,1021.41
2017-04-09T02:06:15.384Z,1021.39
2017-04-09T02:07:25.630Z,1021.43
2017-04-09T02:08:35.884Z,1021.42
2017-04-09T02:09:46.125Z,1021.41
2017-04-09T02:10:56.050Z,1021.39
2017-04-09T02:12:05.980Z,1021.43
2017-04-09T02:13:16.218Z,1021.43
2017-04-09T02:14:26.468Z,1021.42
2017-04-09T02:15:36.706Z,1021.39
2017-04-09T02:16:46.638Z,1021.46
2017-04-09T02:17:56.878Z,1021.45
2017-04-09T02:19:07.121Z,1021.44
2017-04-09T02:20:17.365Z,1021.46
2017-04-09T02:21:27.601Z,1021.46
2017-04-09T02:22:37.536Z,1021.47
2017-04-09T02:23:47.775Z,1021.5
2017-04-09T02:24:58.025Z,1021.48
2017-04-09T02:26:07.640Z,1021.47
2017-04-09T02:27:17.888Z,1021.44
2017-04-09T02:28:28.128Z,1021.45
2017-04-09T02:29:37.739Z,1021.48
2017-04-09T02:30:47.993Z,1021.46
2017-04-09T02:31:58.231Z,1021.42
2017-04-09T02:33:07.846Z,1021.46
2017-04-09T02:34:18.104Z,1021.44
2017-04-09T02:35:28.354Z,1021.47
2017-04-09T02:36:37.976Z,1021.42
2017-04-09T02:37:48.215Z,1021.41
2017-04-09T02:38:57.831Z,1021.46
2017-04-09T02:40:07.757Z,1021.42
2017-04-09T02:41:17.997Z,1021.44
2017-04-09T02:42:27.929Z,1021.45
2017-04-09T02:43:37.860Z,1021.42
2017-04-09T02:44:48.102Z,1021.45
2017-04-09T02:45:58.033Z,1021.42
2017-04-09T02:47:07.957Z,1021.42
2017-04-09T02:48:18.205Z,1021.43
2017-04-09T02:49:28.144Z,1021.4
2017-04-09T02:50:38.071Z,1021.4
2017-04-09T02:51:47.998Z,1021.41
2017-04-09T02:52:58.241Z,1021.41
2017-04-09T02:54:08.169Z,1021.42
2017-04-09T02:55:18.093Z,1021.4
2017-04-09T02:56:28.030Z,1021.4
2017-04-09T02:57:37.959Z,1021.41
2017-04-09T02:58:48.201Z,1021.41
2017-04-09T02:59:58.122Z,1021.38
2017-04-09T03:01:08.058Z,1021.39
2017-04-09T03:02:18.299Z,1021.37
2017-04-09T03:03:28.556Z,1021.4
2017-04-09T03:04:38.803Z,1021.36
2017-04-09T03:05:48.729Z,1021.42
2017-04-09T03:06:58.346Z,1021.37
2017-04-09T03:08:08.591Z,1021.35
2017-04-09T03:09:18.837Z,1021.38
2017-04-09T03:10:29.087Z,1021.39
2017-04-09T03:11:38.702Z,1021.35
2017-04-09T03:12:48.943Z,1021.36
2017-04-09T03:13:59.184Z,1021.35
2017-04-09T03:15:09.124Z,1021.36
2017-04-09T03:16:19.363Z,1021.37
2017-04-09T03:17:28.986Z,1021.35
2017-04-09T03:18:38.956Z,1021.4
2017-04-09T03:19:48.900Z,1021.41
2017-04-09T03:20:59.152Z,1021.38
2017-04-09T03:22:09.400Z,1021.39
2017-04-09T03:23:19.639Z,1021.41
2017-04-09T03:24:29.889Z,1021.38
2017-04-09T03:25:40.124Z,1021.41
2017-04-09T03:26:50.364Z,1021.37
2017-04-09T03:28:00.298Z,1021.37
2017-04-09T03:29:10.226Z,1021.39
2017-04-09T03:30:20.155Z,1021.39
2017-04-09T03:31:30.395Z,1021.4
2017-04-09T03:32:40.322Z,1021.39
2017-04-09T03:33:50.566Z,1021.35
2017-04-09T03:35:00.813Z,1021.36
2017-04-09T03:36:10.742Z,1021.34
2017-04-09T03:37:20.671Z,1021.3
2017-04-09T03:38:30.926Z,1021.33
2017-04-09T03:39:41.171Z,1021.31
2017-04-09T03:40:51.411Z,1021.33
2017-04-09T03:42:01.649Z,1021.35
2017-04-09T03:43:11.571Z,1021.33
2017-04-09T03:44:21.502Z,1021.4
2017-04-09T03:45:31.739Z,1021.39
2017-04-09T03:46:41.673Z,1021.33
2017-04-09T03:47:51.625Z,1021.37
2017-04-09T03:49:01.864Z,1021.36
2017-04-09T03:50:11.797Z,1021.34
2017-04-09T03:51:21.719Z,1021.36
2017-04-09T03:52:31.967Z,1021.34
2017-04-09T03:53:42.205Z,1021.38
2017-04-09T03:54:52.446Z,1021.38
2017-04-09T03:56:02.684Z,1021.35
2017-04-09T03:57:12.919Z,1021.33
2017-04-09T03:58:22.848Z,1021.37
2017-04-09T03:59:32.776Z,1021.32
2017-04-09T04:00:42.705Z,1021.39
2017-04-09T04:01:52.942Z,1021.36
2017-04-09T04:03:03.183Z,1021.38
2017-04-09T04:04:13.113Z,1021.36
2017-04-09T04:05:23.389Z,1021.38
2017-04-09T04:06:33.628Z,1021.37
2017-04-09T04:07:43.869Z,1021.41
2017-04-09T04:08:54.116Z,1021.38
2017-04-09T04:10:04.045Z,1021.38
2017-04-09T04:11:13.661Z,1021.4
2017-04-09T04:12:23.904Z,1021.37
2017-04-09T04:13:33.833Z,1021.38
2017-04-09T04:14:43.756Z,1021.41
2017-04-09T04:15:53.994Z,1021.4
2017-04-09T04:17:03.929Z,1021.42
2017-04-09T04:18:14.168Z,1021.42
2017-04-09T04:19:24.412Z,1021.41
2017-04-09T04:20:34.650Z,1021.47
2017-04-09T04:21:44.576Z,1021.47
2017-04-09T04:22:54.193Z,1021.43
2017-04-09T04:24:04.440Z,1021.47
2017-04-09T04:25:15.367Z,1021.47
2017-04-09T04:26:25.609Z,1021.51
2017-04-09T04:27:35.536Z,1021.49
2017-04-09T04:28:45.772Z,1021.51
2017-04-09T04:29:56.018Z,1021.45
2017-04-09T04:31:06.259Z,1021.46
2017-04-09T04:32:16.501Z,1021.47
2017-04-09T04:33:26.428Z,1021.45
2017-04-09T04:34:36.670Z,1021.49
2017-04-09T04:35:46.599Z,1021.45
2017-04-09T04:36:56.212Z,1021.44
2017-04-09T04:38:06.140Z,1021.48
2017-04-09T04:39:16.376Z,1021.46
2017-04-09T04:40:25.996Z,1021.48
2017-04-09T04:41:35.928Z,1021.53
2017-04-09T04:42:46.164Z,1021.51
2017-04-09T04:43:56.412Z,1021.52
2017-04-09T04:45:06.656Z,1021.51
2017-04-09T04:46:16.588Z,1021.57
2017-04-09T04:47:26.828Z,1021.57
2017-04-09T04:48:37.067Z,1021.55
2017-04-09T04:49:47.000Z,1021.56
2017-04-09T04:50:56.622Z,1021.55
2017-04-09T04:52:06.861Z,1021.52
2017-04-09T04:53:16.475Z,1021.53
2017-04-09T04:54:26.724Z,1021.54
2017-04-09T04:55:36.654Z,1021.55
2017-04-09T04:56:46.588Z,1021.57
2017-04-09T04:57:56.831Z,1021.59
2017-04-09T04:59:07.081Z,1021.61
2017-04-09T05:00:17.006Z,1021.6
2017-04-09T05:01:26.933Z,1021.63
2017-04-09T05:02:36.878Z,1021.61
2017-04-09T05:03:47.113Z,1021.66
2017-04-09T05:04:57.349Z,1021.66
2017-04-09T05:06:07.597Z,1021.66
2017-04-09T05:07:17.206Z,1021.68
2017-04-09T05:08:27.455Z,1021.67
2017-04-09T05:09:37.703Z,1021.73
2017-04-09T05:10:47.948Z,1021.7
2017-04-09T05:11:57.875Z,1021.71
2017-04-09T05:13:07.816Z,1021.71
2017-04-09T05:14:18.064Z,1021.69
2017-04-09T05:15:27.995Z,1021.67
2017-04-09T05:16:38.237Z,1021.73
2017-04-09T05:17:48.169Z,1021.69
2017-04-09T05:18:58.619Z,1021.7
2017-04-09T05:20:08.865Z,1021.71
2017-04-09T05:21:18.791Z,1021.7
2017-04-09T05:22:28.724Z,1021.71
2017-04-09T05:23:38.332Z,1021.73
2017-04-09T05:24:48.262Z,1021.75
2017-04-09T05:25:58.504Z,1021.76
2017-04-09T05:27:08.789Z,1021.77
2017-04-09T05:28:18.715Z,1021.79
2017-04-09T05:29:28.326Z,1021.74
2017-04-09T05:30:38.563Z,1021.72
2017-04-09T05:31:48.494Z,1021.73
2017-04-09T05:32:58.734Z,1021.75
2017-04-09T05:34:08.977Z,1021.74
2017-04-09T05:35:18.588Z,1021.72
2017-04-09T05:36:28.516Z,1021.72
2017-04-09T05:37:38.769Z,1021.74
2017-04-09T05:38:48.696Z,1021.71
2017-04-09T05:39:58.931Z,1021.75
2017-04-09T05:41:09.172Z,1021.74
2017-04-09T05:42:19.411Z,1021.76
2017-04-09T05:43:29.336Z,1021.73
2017-04-09T05:44:39.578Z,1021.75
2017-04-09T05:45:49.821Z,1021.7
2017-04-09T05:47:00.062Z,1021.71
2017-04-09T05:48:09.984Z,1021.69
2017-04-09T05:49:20.261Z,1021.71
2017-04-09T05:50:30.189Z,1021.72
2017-04-09T05:51:40.121Z,1021.7
2017-04-09T05:52:50.048Z,1021.75
2017-04-09T05:53:59.666Z,1021.74
2017-04-09T05:55:09.905Z,1021.8
2017-04-09T05:56:20.143Z,1021.77
2017-04-09T05:57:30.385Z,1021.77
2017-04-09T05:58:40.001Z,1021.78
2017-04-09T05:59:50.245Z,1021.79
2017-04-09T06:01:00.175Z,1021.79
2017-04-09T06:02:10.108Z,1021.77
2017-04-09T06:03:20.349Z,1021.81
2017-04-09T06:04:30.604Z,1021.82
2017-04-09T06:05:40.849Z,1021.83
2017-04-09T06:06:50.776Z,1021.86
2017-04-09T06:08:01.021Z,1021.87
2017-04-09T06:09:11.266Z,1021.91
2017-04-09T06:10:21.509Z,1021.91
2017-04-09T06:11:31.473Z,1021.92
2017-04-09T06:12:41.714Z,1021.94
2017-04-09T06:13:51.651Z,1021.95
2017-04-09T06:15:01.891Z,1021.97
2017-04-09T06:16:12.144Z,1021.95
2017-04-09T06:17:22.408Z,1022
2017-04-09T06:18:32.644Z,1022.01
2017-04-09T06:19:42.258Z,1022.02
2017-04-09T06:20:52.497Z,1022.02
2017-04-09T06:22:02.425Z,1022.01
2017-04-09T06:23:12.667Z,1022.02
2017-04-09T06:24:22.599Z,1021.99
2017-04-09T06:25:32.843Z,1021.98
2017-04-09T06:26:42.770Z,1022
2017-04-09T06:27:53.012Z,1022
2017-04-09T06:29:02.949Z,1022
2017-04-09T06:30:12.882Z,1021.97
2017-04-09T06:31:22.811Z,1021.97
2017-04-09T06:32:32.433Z,1021.97
2017-04-09T06:33:42.686Z,1021.97
2017-04-09T06:34:52.611Z,1021.96
2017-04-09T06:36:02.234Z,1021.93
2017-04-09T06:37:12.481Z,1021.98
2017-04-09T06:38:22.093Z,1021.96
2017-04-09T06:39:32.329Z,1022.01
2017-04-09T06:40:42.256Z,1022.04
2017-04-09T06:41:52.186Z,1022.02
2017-04-09T06:43:02.436Z,1022.05
2017-04-09T06:44:12.694Z,1022.02
2017-04-09T06:45:22.942Z,1022.04
2017-04-09T06:46:33.177Z,1022.04
2017-04-09T06:47:43.410Z,1022.03
2017-04-09T06:48:53.356Z,1022.01
2017-04-09T06:50:03.605Z,1022.02
2017-04-09T06:51:13.849Z,1022.02
2017-04-09T06:52:24.092Z,1022.01
2017-04-09T06:53:34.031Z,1022.02
2017-04-09T06:54:44.278Z,1022.01
2017-04-09T06:55:54.538Z,1022.03
2017-04-09T06:57:04.471Z,1022.06
2017-04-09T06:58:14.398Z,1022.06
2017-04-09T06:59:24.640Z,1022.07
2017-04-09T07:00:34.881Z,1022.06
2017-04-09T07:01:45.126Z,1022.07
2017-04-09T07:02:55.051Z,1022.07
2017-04-09T07:04:05.210Z,1022.08
2017-04-09T07:05:15.141Z,1022.1
2017-04-09T07:06:25.066Z,1022.09
2017-04-09T07:07:35.315Z,1022.08
2017-04-09T07:08:45.250Z,1022.1
2017-04-09T07:09:55.489Z,1022.16
2017-04-09T07:11:05.416Z,1022.18
2017-04-09T07:12:15.347Z,1022.18
2017-04-09T07:13:25.275Z,1022.21
2017-04-09T07:14:35.525Z,1022.19
2017-04-09T07:15:45.465Z,1022.19
2017-04-09T07:16:55.392Z,1022.19
2017-04-09T07:18:05.643Z,1022.2
2017-04-09T07:19:15.888Z,1022.2
2017-04-09T07:20:25.832Z,1022.23
2017-04-09T07:21:36.101Z,1022.24
2017-04-09T07:22:45.716Z,1022.25
2017-04-09T07:23:55.962Z,1022.25
2017-04-09T07:25:06.211Z,1022.24
2017-04-09T07:26:16.154Z,1022.27
2017-04-09T07:27:26.089Z,1022.24
2017-04-09T07:28:36.329Z,1022.26
2017-04-09T07:29:46.592Z,1022.26
2017-04-09T07:30:56.831Z,1022.22
2017-04-09T07:32:07.071Z,1022.23
2017-04-09T07:33:17.308Z,1022.25
2017-04-09T07:34:27.545Z,1022.23
2017-04-09T07:35:37.809Z,1022.27
2017-04-09T07:36:47.817Z,1022.25
2017-04-09T07:37:58.123Z,1022.25
2017-04-09T07:39:08.096Z,1022.27
2017-04-09T07:40:18.407Z,1022.26
2017-04-09T07:41:28.407Z,1022.27
2017-04-09T07:42:38.709Z,1022.28
2017-04-09T07:43:48.724Z,1022.27
2017-04-09T07:44:58.724Z,1022.34
2017-04-09T07:46:09.055Z,1022.28
2017-04-09T07:47:18.994Z,1022.31
2017-04-09T07:48:29.235Z,1022.25
2017-04-09T07:49:39.480Z,1022.27
2017-04-09T07:50:49.409Z,1022.29
2017-04-09T07:51:59.649Z,1022.28
2017-04-09T07:53:09.576Z,1022.24
2017-04-09T07:54:19.827Z,1022.25
2017-04-09T07:55:30.097Z,1022.26
2017-04-09T07:56:40.029Z,1022.27
2017-04-09T07:57:50.270Z,1022.27
2017-04-09T07:58:59.573Z,1022.26
2017-04-09T08:00:09.506Z,1022.27
2017-04-09T08:01:19.121Z,1022.3
2017-04-09T08:02:29.367Z,1022.29
2017-04-09T08:03:38.989Z,1022.3
2017-04-09T08:04:48.920Z,1022.34
2017-04-09T08:05:58.849Z,1022.32
2017-04-09T08:07:09.098Z,1022.33
2017-04-09T08:08:19.025Z,1022.3
2017-04-09T08:09:29.262Z,1022.29
2017-04-09T08:10:39.531Z,1022.31
2017-04-09T08:11:49.457Z,1022.35
2017-04-09T08:12:59.389Z,1022.36
2017-04-09T08:14:09.630Z,1022.34
2017-04-09T08:15:19.558Z,1022.33
2017-04-09T08:16:29.504Z,1022.34
2017-04-09T08:17:39.744Z,1022.37
2017-04-09T08:18:49.354Z,1022.36
2017-04-09T08:19:59.595Z,1022.35
2017-04-09T08:21:09.844Z,1022.37
2017-04-09T08:22:20.080Z,1022.37
2017-04-09T08:23:29.699Z,1022.35
2017-04-09T08:24:39.640Z,1022.4
2017-04-09T08:25:49.881Z,1022.4
2017-04-09T08:26:59.815Z,1022.38
2017-04-09T08:28:10.085Z,1022.39
2017-04-09T08:29:19.610Z,1022.43
2017-04-09T08:30:29.859Z,1022.34
2017-04-09T08:31:39.789Z,1022.32
2017-04-09T08:32:50.027Z,1022.33
2017-04-09T08:34:00.268Z,1022.33
2017-04-09T08:35:10.513Z,1022.33
2017-04-09T08:36:20.438Z,1022.29
2017-04-09T08:37:30.678Z,1022.29
2017-04-09T08:38:40.608Z,1022.27
2017-04-09T08:39:50.533Z,1022.27
2017-04-09T08:41:00.771Z,1022.25
2017-04-09T08:42:11.017Z,1022.27
2017-04-09T08:43:20.947Z,1022.27
2017-04-09T08:44:30.866Z,1022.33
2017-04-09T08:45:41.112Z,1022.3
2017-04-09T08:46:51.350Z,1022.33
2017-04-09T08:48:01.300Z,1022.29
2017-04-09T08:49:11.226Z,1022.29
2017-04-09T08:50:21.155Z,1022.27
2017-04-09T08:51:31.397Z,1022.25
2017-04-09T08:52:41.325Z,1022.3
2017-04-09T08:53:51.582Z,1022.35
2017-04-09T08:55:01.509Z,1022.29
2017-04-09T08:56:11.447Z,1022.28
2017-04-09T08:57:21.380Z,1022.31
2017-04-09T08:58:31.305Z,1022.27
2017-04-09T08:59:41.236Z,1022.23
2017-04-09T09:00:51.473Z,1022.3
2017-04-09T09:02:01.404Z,1022.2
2017-04-09T09:03:11.644Z,1022.28
2017-04-09T09:04:21.566Z,1022.24
2017-04-09T09:05:31.492Z,1022.22
2017-04-09T09:06:41.775Z,1022.19
2017-04-09T09:07:51.447Z,1022.19
2017-04-09T09:09:01.405Z,1022.22
2017-04-09T09:10:11.667Z,1022.23
2017-04-09T09:11:21.962Z,1022.23
2017-04-09T09:12:31.930Z,1022.21
2017-04-09T09:13:42.223Z,1022.24
2017-04-09T09:14:52.501Z,1022.32
2017-04-09T09:16:02.466Z,1022.31
2017-04-09T09:17:12.094Z,1022.26
2017-04-09T09:18:22.053Z,1022.21
2017-04-09T09:19:32.017Z,1022.26
2017-04-09T09:20:42.255Z,1022.25
2017-04-09T09:21:52.505Z,1022.27
2017-04-09T09:23:02.446Z,1022.26
2017-04-09T09:24:12.379Z,1022.28
2017-04-09T09:25:22.311Z,1022.27
2017-04-09T09:26:32.285Z,1022.2
2017-04-09T09:27:42.532Z,1022.22
2017-04-09T09:28:52.773Z,1022.19
2017-04-09T09:30:03.018Z,1022.14
2017-04-09T09:31:13.264Z,1022.16
2017-04-09T09:32:23.509Z,1022.17
2017-04-09T09:33:33.445Z,1022.16
2017-04-09T09:34:43.389Z,1022.21
2017-04-09T09:35:53.336Z,1022.21
2017-04-09T09:37:03.279Z,1022.18
2017-04-09T09:38:13.234Z,1022.17
2017-04-09T09:39:23.482Z,1022.11
2017-04-09T09:40:33.727Z,1022.14
2017-04-09T09:41:43.970Z,1022.11
2017-04-09T09:42:53.899Z,1022.06
2017-04-09T09:44:04.140Z,1022.12
2017-04-09T09:45:14.381Z,1022.13
2017-04-09T09:46:24.632Z,1022.1
2017-04-09T09:47:34.868Z,1022.08
2017-04-09T09:48:45.109Z,1022.05
2017-04-09T09:49:55.037Z,1022.09
2017-04-09T09:51:04.376Z,1022.06
2017-04-09T09:52:14.323Z,1022.14
2017-04-09T09:53:24.252Z,1022.12
2017-04-09T09:54:34.209Z,1022.08
2017-04-09T09:55:44.153Z,1022.05
2017-04-09T09:56:54.083Z,1022.04
2017-04-09T09:58:04.324Z,1022.07
2017-04-09T09:59:14.590Z,1022.03
2017-04-09T10:00:24.522Z,1022
2017-04-09T10:01:34.447Z,1022.01
2017-04-09T10:02:44.374Z,1021.98
2017-04-09T10:03:54.616Z,1021.94
2017-04-09T10:05:04.228Z,1021.94
2017-04-09T10:06:14.154Z,1021.93
2017-04-09T10:07:24.082Z,1021.91
2017-04-09T10:08:34.328Z,1021.94
2017-04-09T10:09:44.254Z,1021.9
2017-04-09T10:10:54.494Z,1021.89
2017-04-09T10:12:04.747Z,1021.9
2017-04-09T10:13:14.407Z,1021.92
2017-04-09T10:14:24.359Z,1021.92
2017-04-09T10:15:34.618Z,1021.92
2017-04-09T10:16:44.858Z,1021.93
2017-04-09T10:17:54.786Z,1021.91
2017-04-09T10:19:05.035Z,1021.86
2017-04-09T10:20:15.279Z,1021.87
2017-04-09T10:21:25.208Z,1021.82
2017-04-09T10:22:35.131Z,1021.86
2017-04-09T10:23:45.367Z,1021.93
2017-04-09T10:24:55.293Z,1021.88
2017-04-09T10:26:05.537Z,1021.85
2017-04-09T10:27:15.781Z,1021.91
2017-04-09T10:28:26.023Z,1021.84
2017-04-09T10:29:35.959Z,1021.87
2017-04-09T10:30:45.890Z,1021.81
2017-04-09T10:31:56.135Z,1021.76
2017-04-09T10:33:06.057Z,1021.77
2017-04-09T10:34:16.295Z,1021.77
2017-04-09T10:35:25.907Z,1021.74
2017-04-09T10:36:35.878Z,1021.77
2017-04-09T10:37:45.866Z,1021.77
2017-04-09T10:38:55.513Z,1021.75
2017-04-09T10:40:05.755Z,1021.76
2017-04-09T10:41:15.682Z,1021.71
2017-04-09T10:42:25.922Z,1021.78
2017-04-09T10:43:36.161Z,1021.68
2017-04-09T10:44:46.089Z,1021.76
2017-04-09T10:45:56.333Z,1021.76
2017-04-09T10:47:06.576Z,1021.76
2017-04-09T10:48:16.499Z,1021.72
2017-04-09T10:49:26.116Z,1021.64
2017-04-09T10:50:35.731Z,1021.7
2017-04-09T10:51:45.349Z,1021.65
2017-04-09T10:52:54.964Z,1021.59
2017-04-09T10:54:05.217Z,1021.63
2017-04-09T10:55:15.470Z,1021.62
2017-04-09T10:56:25.406Z,1021.64
2017-04-09T10:57:35.663Z,1021.59
2017-04-09T10:58:45.906Z,1021.66
2017-04-09T10:59:55.848Z,1021.68
2017-04-09T11:01:05.468Z,1021.69
2017-04-09T11:02:15.742Z,1021.65
2017-04-09T11:03:25.985Z,1021.67
2017-04-09T11:04:35.915Z,1021.56
2017-04-09T11:05:44.902Z,1021.6
2017-04-09T11:06:55.136Z,1021.56
2017-04-09T11:08:05.380Z,1021.64
2017-04-09T11:09:15.628Z,1021.65
2017-04-09T11:10:25.881Z,1021.59
2017-04-09T11:11:35.806Z,1021.54
2017-04-09T11:12:45.737Z,1021.57
2017-04-09T11:13:55.975Z,1021.53
2017-04-09T11:15:05.624Z,1021.49
2017-04-09T11:16:15.864Z,1021.49
2017-04-09T11:17:25.814Z,1021.46
2017-04-09T11:18:36.048Z,1021.5
2017-04-09T11:19:45.357Z,1021.53
2017-04-09T11:20:55.287Z,1021.51
2017-04-09T11:22:05.220Z,1021.49
2017-04-09T11:23:15.466Z,1021.52
2017-04-09T11:24:25.719Z,1021.51
2017-04-09T11:25:35.647Z,1021.48
2017-04-09T11:26:45.573Z,1021.49
2017-04-09T11:27:55.838Z,1021.44
2017-04-09T11:29:05.769Z,1021.43
2017-04-09T11:30:15.710Z,1021.37
2017-04-09T11:31:25.950Z,1021.37
2017-04-09T11:32:35.879Z,1021.32
2017-04-09T11:33:46.125Z,1021.33
2017-04-09T11:34:56.058Z,1021.35
2017-04-09T11:36:05.995Z,1021.41
2017-04-09T11:37:16.236Z,1021.34
2017-04-09T11:38:25.857Z,1021.32
2017-04-09T11:39:36.113Z,1021.33
2017-04-09T11:40:45.734Z,1021.26
2017-04-09T11:41:55.977Z,1021.32
2017-04-09T11:43:05.587Z,1021.31
2017-04-09T11:44:15.832Z,1021.3
2017-04-09T11:45:25.448Z,1021.38
2017-04-09T11:46:35.067Z,1021.37
2017-04-09T11:47:44.681Z,1021.44
2017-04-09T11:48:54.609Z,1021.36
2017-04-09T11:50:04.844Z,1021.36
2017-04-09T11:51:14.458Z,1021.32
2017-04-09T11:52:24.382Z,1021.3
2017-04-09T11:53:34.640Z,1021.32
2017-04-09T11:54:44.577Z,1021.27
2017-04-09T11:55:54.818Z,1021.28
2017-04-09T11:57:05.068Z,1021.32
2017-04-09T11:58:14.999Z,1021.34
2017-04-09T11:59:25.247Z,1021.34
2017-04-09T12:00:35.522Z,1021.3
2017-04-09T12:01:45.760Z,1021.23
2017-04-09T12:02:55.687Z,1021.23
2017-04-09T12:04:05.939Z,1021.3
2017-04-09T12:05:16.191Z,1021.24
2017-04-09T12:06:26.427Z,1021.16
2017-04-09T12:07:36.040Z,1021.13
2017-04-09T12:08:46.284Z,1021.15
2017-04-09T12:09:56.522Z,1021.13
2017-04-09T12:11:06.973Z,1021.08
2017-04-09T12:12:16.940Z,1021.08
2017-04-09T12:13:26.880Z,1021.05
2017-04-09T12:14:36.492Z,1021.03
2017-04-09T12:15:46.112Z,1020.99
2017-04-09T12:16:56.359Z,1021.01
2017-04-09T12:18:06.297Z,1020.93
2017-04-09T12:19:16.230Z,1020.89
2017-04-09T12:20:26.477Z,1020.96
2017-04-09T12:21:36.721Z,1020.94
2017-04-09T12:22:46.652Z,1020.94
2017-04-09T12:23:56.888Z,1020.92
2017-04-09T12:25:07.130Z,1020.86
2017-04-09T12:26:17.368Z,1020.86
2017-04-09T12:27:26.987Z,1020.87
2017-04-09T12:28:36.927Z,1020.85
2017-04-09T12:29:46.858Z,1020.91
2017-04-09T12:30:57.102Z,1020.88
2017-04-09T12:32:07.035Z,1020.87
2017-04-09T12:33:17.273Z,1020.88
2017-04-09T12:34:26.889Z,1020.8
2017-04-09T12:35:36.813Z,1020.75
2017-04-09T12:36:46.740Z,1020.73
2017-04-09T12:37:56.359Z,1020.71
2017-04-09T12:39:06.292Z,1020.74
2017-04-09T12:40:15.900Z,1020.7
2017-04-09T12:41:25.515Z,1020.76
2017-04-09T12:42:35.752Z,1020.73
2017-04-09T12:43:45.680Z,1020.73
2017-04-09T12:44:55.925Z,1020.68
2017-04-09T12:46:05.865Z,1020.62
2017-04-09T12:47:15.479Z,1020.61
2017-04-09T12:48:25.726Z,1020.63
2017-04-09T12:49:35.692Z,1020.66
2017-04-09T12:50:45.313Z,1020.61
2017-04-09T12:51:55.559Z,1020.61
2017-04-09T12:53:05.802Z,1020.6
2017-04-09T12:54:15.735Z,1020.63
2017-04-09T12:55:25.974Z,1020.65
2017-04-09T12:56:35.590Z,1020.62
2017-04-09T12:57:45.830Z,1020.63
2017-04-09T12:58:55.442Z,1020.61
2017-04-09T13:00:06.573Z,1020.59
2017-04-09T13:01:16.510Z,1020.59
2017-04-09T13:02:26.439Z,1020.58
2017-04-09T13:03:36.375Z,1020.63
2017-04-09T13:04:45.991Z,1020.6
2017-04-09T13:05:56.234Z,1020.59
2017-04-09T13:07:06.162Z,1020.59
2017-04-09T13:08:16.094Z,1020.55
2017-04-09T13:09:26.341Z,1020.57
2017-04-09T13:10:36.582Z,1020.56
2017-04-09T13:11:46.507Z,1020.56
2017-04-09T13:12:56.431Z,1020.56
2017-04-09T13:14:06.362Z,1020.58
2017-04-09T13:15:15.975Z,1020.58
2017-04-09T13:16:26.213Z,1020.53
2017-04-09T13:17:35.850Z,1020.56
2017-04-09T13:18:45.819Z,1020.54
2017-04-09T13:19:56.082Z,1020.54
2017-04-09T13:21:06.405Z,1020.49
2017-04-09T13:22:17.568Z,1020.47
2017-04-09T13:23:28.784Z,1020.49
2017-04-09T13:24:39.201Z,1020.56
2017-04-09T13:25:49.619Z,1020.59
2017-04-09T13:27:00.406Z,1020.46
2017-04-09T13:28:11.458Z,1020.48
2017-04-09T13:29:22.214Z,1020.49
2017-04-09T13:30:32.950Z,1020.46
2017-04-09T13:31:43.292Z,1020.45
2017-04-09T13:32:54.034Z,1020.35
2017-04-09T13:34:04.399Z,1020.36
2017-04-09T13:35:15.536Z,1020.34
2017-04-09T13:36:26.482Z,1020.32
2017-04-09T13:37:36.795Z,1020.32
2017-04-09T13:38:46.761Z,1020.32
2017-04-09T13:39:57.222Z,1020.29
2017-04-09T13:41:07.652Z,1020.29
2017-04-09T13:42:18.101Z,1020.27
2017-04-09T13:43:28.747Z,1020.27
2017-04-09T13:44:39.346Z,1020.26
2017-04-09T13:45:49.693Z,1020.2
2017-04-09T13:47:00.352Z,1020.22
2017-04-09T13:48:10.588Z,1020.19
2017-04-09T13:49:21.183Z,1020.21
2017-04-09T13:50:31.097Z,1020.2
2017-04-09T13:51:41.487Z,1020.16
2017-04-09T13:52:51.223Z,1020.13
2017-04-09T13:54:01.494Z,1020.19
2017-04-09T13:55:12.522Z,1020.11
2017-04-09T13:56:22.566Z,1020.1
2017-04-09T13:57:32.966Z,1020.04
2017-04-09T13:58:43.584Z,1020.07
2017-04-09T13:59:54.356Z,1020.04
2017-04-09T14:01:05.495Z,1019.98
2017-04-09T14:02:16.585Z,1020
2017-04-09T14:03:27.677Z,1019.98
2017-04-09T14:04:38.108Z,1020.02
2017-04-09T14:05:48.469Z,1019.99
2017-04-09T14:06:59.433Z,1019.98
2017-04-09T14:08:09.949Z,1020.04
2017-04-09T14:09:20.631Z,1020.04
2017-04-09T14:10:31.616Z,1020.05